sensor_id;sensor_type;location;lat;lon;timestamp;pressure;altitude;pressure_sealevel;temperature;humidity
48892;BME280;50130;52.150;5.236;2023-04-05T00:01:05;102323.0;;;3.15;87.35
48892;BME280;50130;52.150;5.236;2023-04-05T00:02:41;102324.0;;;3.24;86.97
48892;BME280;50130;52.150;5.236;2023-04-05T00:04:18;102324.0;;;3.28;86.5
48892;BME280;50130;52.150;5.236;2023-04-05T00:05:54;102315.0;;;3.14;86.55
48892;BME280;50130;52.150;5.236;2023-04-05T00:09:06;102317.0;;;3.03;86.96
48892;BME280;50130;52.150;5.236;2023-04-05T00:10:42;102315.0;;;2.94;87.62
48892;BME280;50130;52.150;5.236;2023-04-05T00:12:18;102319.0;;;2.85;87.95
48892;BME280;50130;52.150;5.236;2023-04-05T00:15:36;102313.0;;;2.75;88.67
48892;BME280;50130;52.150;5.236;2023-04-05T00:17:12;102311.0;;;2.79;88.12
48892;BME280;50130;52.150;5.236;2023-04-05T00:18:48;102308.0;;;2.82;87.44
48892;BME280;50130;52.150;5.236;2023-04-05T00:22:00;102311.0;;;2.95;87.04
48892;BME280;50130;52.150;5.236;2023-04-05T00:23:36;102316.0;;;2.97;86.91
48892;BME280;50130;52.150;5.236;2023-04-05T00:25:12;102316.0;;;2.82;87.11
48892;BME280;50130;52.150;5.236;2023-04-05T00:28:25;102311.0;;;2.73;87.55
48892;BME280;50130;52.150;5.236;2023-04-05T00:30:01;102309.0;;;2.78;87.18
48892;BME280;50130;52.150;5.236;2023-04-05T00:31:37;102303.0;;;2.81;86.74
48892;BME280;50130;52.150;5.236;2023-04-05T00:33:13;102306.0;;;2.92;86.19
48892;BME280;50130;52.150;5.236;2023-04-05T00:36:25;102307.0;;;2.77;86.75
48892;BME280;50130;52.150;5.236;2023-04-05T00:38:02;102299.0;;;2.68;87.05
48892;BME280;50130;52.150;5.236;2023-04-05T00:39:38;102298.0;;;2.56;87.78
48892;BME280;50130;52.150;5.236;2023-04-05T00:42:50;102296.0;;;2.5;88.25
48892;BME280;50130;52.150;5.236;2023-04-05T00:44:26;102296.0;;;2.54;87.96
48892;BME280;50130;52.150;5.236;2023-04-05T00:46:03;102297.0;;;2.42;88.21
48892;BME280;50130;52.150;5.236;2023-04-05T00:49:17;102296.0;;;2.48;88.22
48892;BME280;50130;52.150;5.236;2023-04-05T00:50:53;102291.0;;;2.57;87.8
48892;BME280;50130;52.150;5.236;2023-04-05T00:52:30;102293.0;;;2.61;87.21
48892;BME280;50130;52.150;5.236;2023-04-05T00:54:08;102294.0;;;2.71;87.02
48892;BME280;50130;52.150;5.236;2023-04-05T00:57:22;102294.0;;;2.57;86.97
48892;BME280;50130;52.150;5.236;2023-04-05T00:58:58;102293.0;;;2.54;86.88
48892;BME280;50130;52.150;5.236;2023-04-05T01:00:35;102287.0;;;2.44;87.3
48892;BME280;50130;52.150;5.236;2023-04-05T01:04:04;102283.0;;;2.44;87.57
48892;BME280;50130;52.150;5.236;2023-04-05T01:05:44;102282.0;;;2.35;87.47
48892;BME280;50130;52.150;5.236;2023-04-05T01:07:30;102278.0;;;2.23;88.14
48892;BME280;50130;52.150;5.236;2023-04-05T01:09:13;102281.0;;;2.11;88.52
48892;BME280;50130;52.150;5.236;2023-04-05T01:10:55;102285.0;;;2.21;88.25
48892;BME280;50130;52.150;5.236;2023-04-05T01:14:12;102278.0;;;2.06;88.11
48892;BME280;50130;52.150;5.236;2023-04-05T01:15:49;102276.0;;;2.11;87.95
48892;BME280;50130;52.150;5.236;2023-04-05T01:17:27;102280.0;;;2.1;87.91
48892;BME280;50130;52.150;5.236;2023-04-05T01:20:45;102283.0;;;2.13;87.39
48892;BME280;50130;52.150;5.236;2023-04-05T01:23:22;102276.0;;;2.13;87.8
48892;BME280;50130;52.150;5.236;2023-04-05T01:25:48;102273.0;;;2.09;88.04
48892;BME280;50130;52.150;5.236;2023-04-05T01:27:44;102269.0;;;2.29;87.32
48892;BME280;50130;52.150;5.236;2023-04-05T01:31:31;102270.0;;;2.38;86.72
48892;BME280;50130;52.150;5.236;2023-04-05T01:33:16;102268.0;;;2.41;86.15
48892;BME280;50130;52.150;5.236;2023-04-05T01:35:01;102263.0;;;2.31;86.45
48892;BME280;50130;52.150;5.236;2023-04-05T01:36:48;102260.0;;;2.25;86.43
48892;BME280;50130;52.150;5.236;2023-04-05T01:38:30;102257.0;;;2.04;86.72
48892;BME280;50130;52.150;5.236;2023-04-05T01:40:08;102264.0;;;2.11;86.55
48892;BME280;50130;52.150;5.236;2023-04-05T01:43:21;102261.0;;;2.13;86.32
48892;BME280;50130;52.150;5.236;2023-04-05T01:44:58;102262.0;;;2.11;86.65
48892;BME280;50130;52.150;5.236;2023-04-05T01:46:34;102255.0;;;2.21;86.36
48892;BME280;50130;52.150;5.236;2023-04-05T01:49:47;102255.0;;;2.02;86.7
48892;BME280;50130;52.150;5.236;2023-04-05T01:51:23;102256.0;;;1.75;88.04
48892;BME280;50130;52.150;5.236;2023-04-05T01:52:59;102253.0;;;1.67;88.52
48892;BME280;50130;52.150;5.236;2023-04-05T01:56:12;102256.0;;;1.66;88.69
48892;BME280;50130;52.150;5.236;2023-04-05T01:57:48;102252.0;;;1.77;88.22
48892;BME280;50130;52.150;5.236;2023-04-05T01:59:24;102248.0;;;1.78;87.99
48892;BME280;50130;52.150;5.236;2023-04-05T02:04:12;102245.0;;;1.62;88.1
48892;BME280;50130;52.150;5.236;2023-04-05T02:05:48;102243.0;;;1.64;88.07
48892;BME280;50130;52.150;5.236;2023-04-05T02:07:25;102246.0;;;1.7;87.72
48892;BME280;50130;52.150;5.236;2023-04-05T02:10:38;102238.0;;;1.87;87.34
48892;BME280;50130;52.150;5.236;2023-04-05T02:12:14;102241.0;;;1.79;86.37
48892;BME280;50130;52.150;5.236;2023-04-05T02:13:50;102242.0;;;1.75;86.38
48892;BME280;50130;52.150;5.236;2023-04-05T02:17:02;102243.0;;;1.57;86.92
48892;BME280;50130;52.150;5.236;2023-04-05T02:18:38;102240.0;;;1.53;87.44
48892;BME280;50130;52.150;5.236;2023-04-05T02:20:14;102234.0;;;1.53;87.44
48892;BME280;50130;52.150;5.236;2023-04-05T02:23:28;102233.0;;;1.47;87.71
48892;BME280;50130;52.150;5.236;2023-04-05T02:25:06;102230.0;;;1.41;87.8
48892;BME280;50130;52.150;5.236;2023-04-05T02:26:42;102230.0;;;1.57;87.59
48892;BME280;50130;52.150;5.236;2023-04-05T02:28:18;102227.0;;;1.64;87.32
48892;BME280;50130;52.150;5.236;2023-04-05T02:31:31;102230.0;;;1.73;86.96
48892;BME280;50130;52.150;5.236;2023-04-05T02:33:08;102223.0;;;1.8;86.23
48892;BME280;50130;52.150;5.236;2023-04-05T02:34:44;102224.0;;;1.73;86.23
48892;BME280;50130;52.150;5.236;2023-04-05T02:37:56;102222.0;;;1.76;86.02
48892;BME280;50130;52.150;5.236;2023-04-05T02:39:32;102214.0;;;1.63;86.06
48892;BME280;50130;52.150;5.236;2023-04-05T02:41:09;102214.0;;;1.61;86.18
48892;BME280;50130;52.150;5.236;2023-04-05T02:44:22;102214.0;;;1.5;86.77
48892;BME280;50130;52.150;5.236;2023-04-05T02:45:58;102214.0;;;1.3;87.11
48892;BME280;50130;52.150;5.236;2023-04-05T02:47:34;102214.0;;;1.31;87.42
48892;BME280;50130;52.150;5.236;2023-04-05T02:49:10;102216.0;;;1.24;87.79
48892;BME280;50130;52.150;5.236;2023-04-05T02:52:23;102211.0;;;1.21;88.04
48892;BME280;50130;52.150;5.236;2023-04-05T02:54:00;102211.0;;;1.24;87.99
48892;BME280;50130;52.150;5.236;2023-04-05T02:55:36;102209.0;;;1.36;87.18
48892;BME280;50130;52.150;5.236;2023-04-05T02:58:49;102207.0;;;1.47;86.7
48892;BME280;50130;52.150;5.236;2023-04-05T03:00:25;102203.0;;;1.65;86.21
48892;BME280;50130;52.150;5.236;2023-04-05T03:02:01;102202.0;;;1.66;85.73
48892;BME280;50130;52.150;5.236;2023-04-05T03:05:14;102198.0;;;1.6;85.69
48892;BME280;50130;52.150;5.236;2023-04-05T03:06:50;102192.0;;;1.49;85.68
48892;BME280;50130;52.150;5.236;2023-04-05T03:08:26;102191.0;;;1.44;85.75
48892;BME280;50130;52.150;5.236;2023-04-05T03:10:02;102193.0;;;1.29;86.63
48892;BME280;50130;52.150;5.236;2023-04-05T03:13:14;102188.0;;;1.6;85.78
48892;BME280;50130;52.150;5.236;2023-04-05T03:14:50;102187.0;;;1.68;85.62
48892;BME280;50130;52.150;5.236;2023-04-05T03:16:26;102191.0;;;1.62;85.17
48892;BME280;50130;52.150;5.236;2023-04-05T03:19:39;102186.0;;;1.44;85.45
48892;BME280;50130;52.150;5.236;2023-04-05T03:21:15;102195.0;;;1.37;85.87
48892;BME280;50130;52.150;5.236;2023-04-05T03:22:51;102183.0;;;1.35;86.22
48892;BME280;50130;52.150;5.236;2023-04-05T03:26:04;102181.0;;;1.37;86.15
48892;BME280;50130;52.150;5.236;2023-04-05T03:27:40;102180.0;;;1.39;85.84
48892;BME280;50130;52.150;5.236;2023-04-05T03:29:16;102180.0;;;1.3;86.26
48892;BME280;50130;52.150;5.236;2023-04-05T03:32:29;102180.0;;;1.34;86.51
48892;BME280;50130;52.150;5.236;2023-04-05T03:34:05;102180.0;;;1.37;86.18
48892;BME280;50130;52.150;5.236;2023-04-05T03:35:41;102181.0;;;1.24;86.31
48892;BME280;50130;52.150;5.236;2023-04-05T03:37:17;102185.0;;;1.13;86.96
48892;BME280;50130;52.150;5.236;2023-04-05T03:40:30;102180.0;;;0.94;88.02
48892;BME280;50130;52.150;5.236;2023-04-05T03:42:07;102176.0;;;0.85;88.47
48892;BME280;50130;52.150;5.236;2023-04-05T03:43:43;102176.0;;;0.81;88.55
48892;BME280;50130;52.150;5.236;2023-04-05T03:46:55;102175.0;;;0.82;88.56
48892;BME280;50130;52.150;5.236;2023-04-05T03:48:32;102174.0;;;0.88;88.18
48892;BME280;50130;52.150;5.236;2023-04-05T03:50:09;102180.0;;;0.96;87.87
48892;BME280;50130;52.150;5.236;2023-04-05T03:53:21;102176.0;;;1.04;87.43
48892;BME280;50130;52.150;5.236;2023-04-05T03:54:57;102181.0;;;0.96;87.61
48892;BME280;50130;52.150;5.236;2023-04-05T03:56:33;102178.0;;;1.08;87.51
48892;BME280;50130;52.150;5.236;2023-04-05T03:58:09;102181.0;;;1.07;87.0
48892;BME280;50130;52.150;5.236;2023-04-05T04:01:22;102181.0;;;1.03;87.31
48892;BME280;50130;52.150;5.236;2023-04-05T04:02:58;102180.0;;;1.02;87.38
48892;BME280;50130;52.150;5.236;2023-04-05T04:04:34;102180.0;;;1.0;87.74
48892;BME280;50130;52.150;5.236;2023-04-05T04:07:46;102182.0;;;1.02;87.73
48892;BME280;50130;52.150;5.236;2023-04-05T04:09:22;102180.0;;;0.99;87.96
48892;BME280;50130;52.150;5.236;2023-04-05T04:10:58;102183.0;;;0.98;87.96
48892;BME280;50130;52.150;5.236;2023-04-05T04:14:11;102178.0;;;1.07;87.34
48892;BME280;50130;52.150;5.236;2023-04-05T04:15:47;102180.0;;;1.12;87.31
48892;BME280;50130;52.150;5.236;2023-04-05T04:17:26;102182.0;;;1.11;86.76
48892;BME280;50130;52.150;5.236;2023-04-05T04:19:03;102181.0;;;1.06;86.92
48892;BME280;50130;52.150;5.236;2023-04-05T04:22:15;102175.0;;;1.02;86.98
48892;BME280;50130;52.150;5.236;2023-04-05T04:23:52;102174.0;;;1.1;86.58
48892;BME280;50130;52.150;5.236;2023-04-05T04:25:28;102176.0;;;1.14;86.33
48892;BME280;50130;52.150;5.236;2023-04-05T04:28:40;102170.0;;;1.1;86.29
48892;BME280;50130;52.150;5.236;2023-04-05T04:30:17;102172.0;;;1.06;86.56
48892;BME280;50130;52.150;5.236;2023-04-05T04:31:53;102167.0;;;1.0;87.03
48892;BME280;50130;52.150;5.236;2023-04-05T04:35:06;102167.0;;;0.85;87.08
48892;BME280;50130;52.150;5.236;2023-04-05T04:36:42;102168.0;;;0.77;87.67
48892;BME280;50130;52.150;5.236;2023-04-05T04:38:18;102169.0;;;0.66;88.19
48892;BME280;50130;52.150;5.236;2023-04-05T04:41:30;102174.0;;;0.68;88.4
48892;BME280;50130;52.150;5.236;2023-04-05T04:43:07;102173.0;;;0.65;88.57
48892;BME280;50130;52.150;5.236;2023-04-05T04:44:45;102171.0;;;0.63;88.4
48892;BME280;50130;52.150;5.236;2023-04-05T04:46:21;102169.0;;;0.61;88.42
48892;BME280;50130;52.150;5.236;2023-04-05T04:49:33;102166.0;;;0.59;88.38
48892;BME280;50130;52.150;5.236;2023-04-05T04:51:09;102171.0;;;0.58;88.45
48892;BME280;50130;52.150;5.236;2023-04-05T04:52:46;102168.0;;;0.52;88.72
48892;BME280;50130;52.150;5.236;2023-04-05T04:55:59;102167.0;;;0.48;89.01
48892;BME280;50130;52.150;5.236;2023-04-05T04:57:35;102165.0;;;0.42;89.42
48892;BME280;50130;52.150;5.236;2023-04-05T04:59:11;102163.0;;;0.43;89.41
48892;BME280;50130;52.150;5.236;2023-04-05T05:02:23;102164.0;;;0.31;89.82
48892;BME280;50130;52.150;5.236;2023-04-05T05:04:02;102163.0;;;0.26;89.81
48892;BME280;50130;52.150;5.236;2023-04-05T05:05:41;102166.0;;;0.29;90.02
48892;BME280;50130;52.150;5.236;2023-04-05T05:07:18;102164.0;;;0.29;89.8
48892;BME280;50130;52.150;5.236;2023-04-05T05:10:30;102159.0;;;0.4;89.66
48892;BME280;50130;52.150;5.236;2023-04-05T05:12:06;102161.0;;;0.41;89.23
48892;BME280;50130;52.150;5.236;2023-04-05T05:13:42;102157.0;;;0.39;89.14
48892;BME280;50130;52.150;5.236;2023-04-05T05:16:54;102161.0;;;0.53;88.92
48892;BME280;50130;52.150;5.236;2023-04-05T05:18:31;102160.0;;;0.49;88.46
48892;BME280;50130;52.150;5.236;2023-04-05T05:20:09;102158.0;;;0.43;88.53
48892;BME280;50130;52.150;5.236;2023-04-05T05:23:21;102157.0;;;0.45;88.65
48892;BME280;50130;52.150;5.236;2023-04-05T05:24:57;102161.0;;;0.48;88.63
48892;BME280;50130;52.150;5.236;2023-04-05T05:26:33;102161.0;;;0.45;88.56
48892;BME280;50130;52.150;5.236;2023-04-05T05:28:09;102164.0;;;0.44;88.74
48892;BME280;50130;52.150;5.236;2023-04-05T05:31:22;102160.0;;;0.36;89.03
48892;BME280;50130;52.150;5.236;2023-04-05T05:32:58;102161.0;;;0.36;89.49
48892;BME280;50130;52.150;5.236;2023-04-05T05:34:34;102163.0;;;0.38;89.59
48892;BME280;50130;52.150;5.236;2023-04-05T05:37:46;102161.0;;;0.41;89.39
48892;BME280;50130;52.150;5.236;2023-04-05T05:39:22;102157.0;;;0.38;89.67
48892;BME280;50130;52.150;5.236;2023-04-05T05:40:59;102160.0;;;0.44;89.44
48892;BME280;50130;52.150;5.236;2023-04-05T05:44:11;102160.0;;;0.42;89.41
48892;BME280;50130;52.150;5.236;2023-04-05T05:45:48;102152.0;;;0.44;89.73
48892;BME280;50130;52.150;5.236;2023-04-05T05:47:24;102158.0;;;0.46;89.93
48892;BME280;50130;52.150;5.236;2023-04-05T05:49:00;102163.0;;;0.42;90.26
48892;BME280;50130;52.150;5.236;2023-04-05T05:52:13;102163.0;;;0.4;90.61
48892;BME280;50130;52.150;5.236;2023-04-05T05:53:49;102160.0;;;0.38;90.68
48892;BME280;50130;52.150;5.236;2023-04-05T05:55:25;102161.0;;;0.38;90.89
48892;BME280;50130;52.150;5.236;2023-04-05T05:58:38;102161.0;;;0.42;90.74
48892;BME280;50130;52.150;5.236;2023-04-05T06:00:15;102158.0;;;0.44;90.73
48892;BME280;50130;52.150;5.236;2023-04-05T06:01:51;102161.0;;;0.5;90.64
48892;BME280;50130;52.150;5.236;2023-04-05T06:05:06;102157.0;;;0.53;90.54
48892;BME280;50130;52.150;5.236;2023-04-05T06:06:42;102165.0;;;0.58;90.76
48892;BME280;50130;52.150;5.236;2023-04-05T06:08:18;102164.0;;;0.59;91.05
48892;BME280;50130;52.150;5.236;2023-04-05T06:09:54;102170.0;;;0.65;91.09
48892;BME280;50130;52.150;5.236;2023-04-05T06:13:06;102170.0;;;0.74;91.19
48892;BME280;50130;52.150;5.236;2023-04-05T06:14:43;102169.0;;;0.83;90.94
48892;BME280;50130;52.150;5.236;2023-04-05T06:16:19;102173.0;;;0.94;90.86
48892;BME280;50130;52.150;5.236;2023-04-05T06:19:31;102169.0;;;0.98;91.06
48892;BME280;50130;52.150;5.236;2023-04-05T06:21:07;102168.0;;;1.02;90.94
48892;BME280;50130;52.150;5.236;2023-04-05T06:22:43;102174.0;;;1.13;90.81
48892;BME280;50130;52.150;5.236;2023-04-05T06:25:56;102167.0;;;1.18;90.65
48892;BME280;50130;52.150;5.236;2023-04-05T06:27:32;102167.0;;;1.26;90.75
48892;BME280;50130;52.150;5.236;2023-04-05T06:29:08;102166.0;;;1.31;90.58
48892;BME280;50130;52.150;5.236;2023-04-05T06:32:20;102168.0;;;1.36;90.54
48892;BME280;50130;52.150;5.236;2023-04-05T06:33:56;102167.0;;;1.47;90.31
48892;BME280;50130;52.150;5.236;2023-04-05T06:35:32;102172.0;;;1.42;90.43
48892;BME280;50130;52.150;5.236;2023-04-05T06:37:08;102166.0;;;1.47;90.51
48892;BME280;50130;52.150;5.236;2023-04-05T06:40:21;102166.0;;;1.78;89.96
48892;BME280;50130;52.150;5.236;2023-04-05T06:41:57;102163.0;;;2.04;88.75
48892;BME280;50130;52.150;5.236;2023-04-05T06:43:33;102159.0;;;2.19;88.15
48892;BME280;50130;52.150;5.236;2023-04-05T06:46:46;102163.0;;;2.23;88.66
48892;BME280;50130;52.150;5.236;2023-04-05T06:48:23;102166.0;;;2.31;88.39
48892;BME280;50130;52.150;5.236;2023-04-05T06:49:59;102165.0;;;2.4;88.02
48892;BME280;50130;52.150;5.236;2023-04-05T06:53:11;102164.0;;;2.39;87.79
48892;BME280;50130;52.150;5.236;2023-04-05T06:54:47;102161.0;;;2.48;87.44
48892;BME280;50130;52.150;5.236;2023-04-05T06:56:23;102161.0;;;2.5;88.16
48892;BME280;50130;52.150;5.236;2023-04-05T06:59:36;102160.0;;;2.57;87.68
48892;BME280;50130;52.150;5.236;2023-04-05T07:01:12;102164.0;;;2.59;87.38
48892;BME280;50130;52.150;5.236;2023-04-05T07:02:48;102162.0;;;2.67;87.57
48892;BME280;50130;52.150;5.236;2023-04-05T07:04:24;102162.0;;;2.82;88.67
48892;BME280;50130;52.150;5.236;2023-04-05T07:07:38;102164.0;;;2.86;88.36
48892;BME280;50130;52.150;5.236;2023-04-05T07:09:14;102161.0;;;2.93;89.85
48892;BME280;50130;52.150;5.236;2023-04-05T07:10:50;102165.0;;;3.08;89.34
48892;BME280;50130;52.150;5.236;2023-04-05T07:14:03;102165.0;;;3.15;88.71
48892;BME280;50130;52.150;5.236;2023-04-05T07:15:39;102167.0;;;3.35;88.03
48892;BME280;50130;52.150;5.236;2023-04-05T07:17:15;102160.0;;;3.45;87.15
48892;BME280;50130;52.150;5.236;2023-04-05T07:20:28;102164.0;;;3.67;86.29
48892;BME280;50130;52.150;5.236;2023-04-05T07:22:04;102164.0;;;3.74;86.21
48892;BME280;50130;52.150;5.236;2023-04-05T07:23:40;102161.0;;;3.91;85.05
48892;BME280;50130;52.150;5.236;2023-04-05T07:25:16;102165.0;;;4.12;82.94
48892;BME280;50130;52.150;5.236;2023-04-05T07:28:28;102166.0;;;4.24;82.78
48892;BME280;50130;52.150;5.236;2023-04-05T07:30:06;102167.0;;;4.34;79.94
48892;BME280;50130;52.150;5.236;2023-04-05T07:31:42;102163.0;;;4.54;79.2
48892;BME280;50130;52.150;5.236;2023-04-05T07:34:55;102164.0;;;4.82;78.0
48892;BME280;50130;52.150;5.236;2023-04-05T07:36:31;102164.0;;;4.83;77.55
48892;BME280;50130;52.150;5.236;2023-04-05T07:38:07;102161.0;;;4.93;75.91
48892;BME280;50130;52.150;5.236;2023-04-05T07:41:20;102167.0;;;5.11;75.19
48892;BME280;50130;52.150;5.236;2023-04-05T07:42:56;102164.0;;;5.28;74.58
48892;BME280;50130;52.150;5.236;2023-04-05T07:44:32;102160.0;;;5.48;73.67
48892;BME280;50130;52.150;5.236;2023-04-05T07:46:08;102162.0;;;5.61;74.25
48892;BME280;50130;52.150;5.236;2023-04-05T07:49:23;102159.0;;;5.81;73.47
48892;BME280;50130;52.150;5.236;2023-04-05T07:51:02;102160.0;;;5.86;72.36
48892;BME280;50130;52.150;5.236;2023-04-05T07:52:38;102158.0;;;6.12;71.69
48892;BME280;50130;52.150;5.236;2023-04-05T07:55:50;102160.0;;;6.34;69.92
48892;BME280;50130;52.150;5.236;2023-04-05T07:57:27;102159.0;;;6.51;70.14
48892;BME280;50130;52.150;5.236;2023-04-05T07:59:04;102159.0;;;6.64;68.38
48892;BME280;50130;52.150;5.236;2023-04-05T08:02:16;102165.0;;;6.91;67.55
48892;BME280;50130;52.150;5.236;2023-04-05T08:03:53;102158.0;;;6.94;68.55
48892;BME280;50130;52.150;5.236;2023-04-05T08:05:29;102165.0;;;7.07;65.91
48892;BME280;50130;52.150;5.236;2023-04-05T08:07:05;102164.0;;;7.09;64.05
48892;BME280;50130;52.150;5.236;2023-04-05T08:10:19;102164.0;;;7.23;67.17
48892;BME280;50130;52.150;5.236;2023-04-05T08:11:55;102163.0;;;7.43;63.52
48892;BME280;50130;52.150;5.236;2023-04-05T08:13:31;102158.0;;;7.56;61.26
48892;BME280;50130;52.150;5.236;2023-04-05T08:16:44;102156.0;;;7.56;64.42
48892;BME280;50130;52.150;5.236;2023-04-05T08:18:21;102158.0;;;7.55;64.83
48892;BME280;50130;52.150;5.236;2023-04-05T08:19:58;102159.0;;;7.79;64.22
48892;BME280;50130;52.150;5.236;2023-04-05T08:23:10;102160.0;;;7.89;62.47
48892;BME280;50130;52.150;5.236;2023-04-05T08:24:46;102151.0;;;8.16;62.38
48892;BME280;50130;52.150;5.236;2023-04-05T08:26:22;102158.0;;;8.2;62.07
48892;BME280;50130;52.150;5.236;2023-04-05T08:27:58;102159.0;;;8.25;58.43
48892;BME280;50130;52.150;5.236;2023-04-05T08:31:10;102161.0;;;8.38;53.92
48892;BME280;50130;52.150;5.236;2023-04-05T08:32:46;102160.0;;;8.61;54.71
48892;BME280;50130;52.150;5.236;2023-04-05T08:34:23;102158.0;;;8.72;55.14
48892;BME280;50130;52.150;5.236;2023-04-05T08:37:38;102155.0;;;8.85;52.55
48892;BME280;50130;52.150;5.236;2023-04-05T08:39:15;102155.0;;;9.05;52.84
48892;BME280;50130;52.150;5.236;2023-04-05T08:40:51;102155.0;;;9.07;51.95
48892;BME280;50130;52.150;5.236;2023-04-05T08:44:09;102158.0;;;9.35;51.81
48892;BME280;50130;52.150;5.236;2023-04-05T08:45:48;102156.0;;;9.56;50.63
48892;BME280;50130;52.150;5.236;2023-04-05T08:47:27;102157.0;;;9.44;48.69
48892;BME280;50130;52.150;5.236;2023-04-05T08:49:05;102155.0;;;9.59;47.37
48892;BME280;50130;52.150;5.236;2023-04-05T08:52:25;102155.0;;;9.58;46.47
48892;BME280;50130;52.150;5.236;2023-04-05T08:54:01;102155.0;;;9.77;45.62
48892;BME280;50130;52.150;5.236;2023-04-05T08:55:38;102150.0;;;9.85;44.95
48892;BME280;50130;52.150;5.236;2023-04-05T08:58:56;102150.0;;;9.81;44.92
48892;BME280;50130;52.150;5.236;2023-04-05T09:00:36;102155.0;;;9.88;44.83
48892;BME280;50130;52.150;5.236;2023-04-05T09:02:16;102155.0;;;10.08;41.19
48892;BME280;50130;52.150;5.236;2023-04-05T09:03:53;102153.0;;;10.44;44.0
48892;BME280;50130;52.150;5.236;2023-04-05T09:07:12;102156.0;;;10.41;43.14
48892;BME280;50130;52.150;5.236;2023-04-05T09:08:49;102150.0;;;10.18;43.32
48892;BME280;50130;52.150;5.236;2023-04-05T09:10:26;102152.0;;;9.93;45.67
48892;BME280;50130;52.150;5.236;2023-04-05T09:12:04;102155.0;;;10.28;43.49
48892;BME280;50130;52.150;5.236;2023-04-05T09:15:19;102147.0;;;10.38;43.97
48892;BME280;50130;52.150;5.236;2023-04-05T09:16:57;102147.0;;;10.51;42.12
48892;BME280;50130;52.150;5.236;2023-04-05T09:18:35;102146.0;;;10.51;42.83
48892;BME280;50130;52.150;5.236;2023-04-05T09:22:04;102146.0;;;10.69;44.67
48892;BME280;50130;52.150;5.236;2023-04-05T09:23:50;102147.0;;;10.74;43.51
48892;BME280;50130;52.150;5.236;2023-04-05T09:25:35;102143.0;;;10.56;41.55
48892;BME280;50130;52.150;5.236;2023-04-05T09:27:13;102144.0;;;10.85;41.86
48892;BME280;50130;52.150;5.236;2023-04-05T09:28:50;102140.0;;;10.93;43.5
48892;BME280;50130;52.150;5.236;2023-04-05T09:32:03;102145.0;;;11.06;44.74
48892;BME280;50130;52.150;5.236;2023-04-05T09:33:40;102140.0;;;10.98;42.31
48892;BME280;50130;52.150;5.236;2023-04-05T09:35:18;102136.0;;;11.03;40.56
48892;BME280;50130;52.150;5.236;2023-04-05T09:38:48;102140.0;;;11.05;43.08
48892;BME280;50130;52.150;5.236;2023-04-05T09:40:39;102143.0;;;11.19;41.83
48892;BME280;50130;52.150;5.236;2023-04-05T09:42:17;102142.0;;;11.28;41.57
48892;BME280;50130;52.150;5.236;2023-04-05T09:43:54;102134.0;;;11.34;41.13
48892;BME280;50130;52.150;5.236;2023-04-05T09:45:37;102133.0;;;11.11;41.25
48892;BME280;50130;52.150;5.236;2023-04-05T09:48:51;102137.0;;;11.44;40.49
48892;BME280;50130;52.150;5.236;2023-04-05T09:50:27;102132.0;;;11.5;41.14
48892;BME280;50130;52.150;5.236;2023-04-05T09:52:03;102134.0;;;11.42;39.75
48892;BME280;50130;52.150;5.236;2023-04-05T09:55:32;102132.0;;;11.6;40.58
48892;BME280;50130;52.150;5.236;2023-04-05T09:57:09;102133.0;;;11.89;40.83
48892;BME280;50130;52.150;5.236;2023-04-05T09:58:49;102136.0;;;11.72;40.92
48892;BME280;50130;52.150;5.236;2023-04-05T10:00:27;102134.0;;;11.57;37.9
48892;BME280;50130;52.150;5.236;2023-04-05T10:03:45;102135.0;;;11.8;38.56
48892;BME280;50130;52.150;5.236;2023-04-05T10:05:23;102134.0;;;12.1;39.51
48892;BME280;50130;52.150;5.236;2023-04-05T10:06:59;102132.0;;;12.09;39.99
48892;BME280;50130;52.150;5.236;2023-04-05T10:08:35;102130.0;;;12.18;38.67
48892;BME280;50130;52.150;5.236;2023-04-05T10:11:49;102125.0;;;12.23;38.26
48892;BME280;50130;52.150;5.236;2023-04-05T10:13:26;102122.0;;;12.47;39.56
48892;BME280;50130;52.150;5.236;2023-04-05T10:15:04;102124.0;;;12.25;37.87
48892;BME280;50130;52.150;5.236;2023-04-05T10:18:39;102117.0;;;12.46;37.11
48892;BME280;50130;52.150;5.236;2023-04-05T10:20:22;102124.0;;;12.77;37.79
48892;BME280;50130;52.150;5.236;2023-04-05T10:22:01;102114.0;;;12.46;35.99
48892;BME280;50130;52.150;5.236;2023-04-05T10:23:43;102106.0;;;12.48;37.9
48892;BME280;50130;52.150;5.236;2023-04-05T10:25:47;102105.0;;;12.55;36.64
48892;BME280;50130;52.150;5.236;2023-04-05T10:27:29;102105.0;;;12.47;38.26
48892;BME280;50130;52.150;5.236;2023-04-05T10:30:58;102105.0;;;12.61;38.31
48892;BME280;50130;52.150;5.236;2023-04-05T10:32:45;102099.0;;;12.92;38.28
48892;BME280;50130;52.150;5.236;2023-04-05T10:34:41;102105.0;;;13.0;38.14
48892;BME280;50130;52.150;5.236;2023-04-05T10:36:28;102101.0;;;13.07;36.5
48892;BME280;50130;52.150;5.236;2023-04-05T10:38:23;102105.0;;;13.02;37.0
48892;BME280;50130;52.150;5.236;2023-04-05T10:40:02;102105.0;;;13.06;36.44
48892;BME280;50130;52.150;5.236;2023-04-05T10:43:24;102100.0;;;13.05;36.21
48892;BME280;50130;52.150;5.236;2023-04-05T10:45:02;102099.0;;;13.08;35.65
48892;BME280;50130;52.150;5.236;2023-04-05T10:46:44;102097.0;;;13.15;37.24
48892;BME280;50130;52.150;5.236;2023-04-05T10:48:36;102097.0;;;13.42;38.42
48892;BME280;50130;52.150;5.236;2023-04-05T10:50:20;102093.0;;;13.34;36.31
48892;BME280;50130;52.150;5.236;2023-04-05T10:53:35;102091.0;;;13.32;36.71
48892;BME280;50130;52.150;5.236;2023-04-05T10:55:15;102090.0;;;13.32;38.47
48892;BME280;50130;52.150;5.236;2023-04-05T10:56:52;102088.0;;;13.4;38.06
48892;BME280;50130;52.150;5.236;2023-04-05T11:00:07;102092.0;;;13.54;37.57
48892;BME280;50130;52.150;5.236;2023-04-05T11:01:46;102090.0;;;13.58;37.01
48892;BME280;50130;52.150;5.236;2023-04-05T11:03:55;102083.0;;;13.64;36.17
48892;BME280;50130;52.150;5.236;2023-04-05T11:05:32;102083.0;;;13.9;37.22
48892;BME280;50130;52.150;5.236;2023-04-05T11:07:10;102078.0;;;13.94;38.28
48892;BME280;50130;52.150;5.236;2023-04-05T11:10:29;102085.0;;;13.93;37.71
48892;BME280;50130;52.150;5.236;2023-04-05T11:12:06;102078.0;;;13.67;35.12
48892;BME280;50130;52.150;5.236;2023-04-05T11:13:51;102076.0;;;13.5;35.39
48892;BME280;50130;52.150;5.236;2023-04-05T11:15:28;102073.0;;;13.13;37.56